Nickerson, Nebraska
Current Conditions -  °F | °C
As of 11:55 AM on Monday 24 Nov 2014 (Local Time) from KFET Reporting Station
Overcast Overcast  
Wind Chill: 18°   Ceiling: 2700
Heat Index: 32°   Visibility: 10mi
Dew Point: 19°   Wind: 28mph
Humidity: 58%   Direction: 310°NW
Pressure: 29.75"   Gusts: 33mph
Location:  41.53°N, 96.47°W
Report Text: KFET 241755Z AUTO 31024G29KT 10SM BKN027 BKN034 OVC085 00/M07 A2975 RMK AO2 T00001073 10000 21016
Loading
Personal Weather Stations






























Interactive Weather Map New forecast layout! Learn more

10-Day Weather Forecast

Advertisements
Track Severe Weather on mobile